createdAt,value
2017-05-25T00:00:08.241Z,1000.14
2017-05-25T00:01:08.271Z,1000.15
2017-05-25T00:02:08.299Z,1000.14
2017-05-25T00:03:08.328Z,1000.13
2017-05-25T00:04:08.353Z,1000.17
2017-05-25T00:05:08.386Z,1000.17
2017-05-25T00:06:08.413Z,1000.19
2017-05-25T00:07:08.444Z,1000.21
2017-05-25T00:08:08.473Z,1000.16
2017-05-25T00:09:08.502Z,1000.18
2017-05-25T00:10:08.525Z,1000.16
2017-05-25T00:11:08.558Z,1000.16
2017-05-25T00:12:08.587Z,1000.2
2017-05-25T00:13:08.616Z,1000.15
2017-05-25T00:14:08.643Z,1000.2
2017-05-25T00:15:08.668Z,1000.14
2017-05-25T00:16:08.701Z,1000.13
2017-05-25T00:17:08.728Z,1000.15
2017-05-25T00:18:08.756Z,1000.14
2017-05-25T00:19:08.793Z,1000.14
2017-05-25T00:20:08.814Z,1000.14
2017-05-25T00:21:08.848Z,1000.14
2017-05-25T00:22:08.872Z,1000.09
2017-05-25T00:23:08.900Z,1000.12
2017-05-25T00:24:08.930Z,1000.13
2017-05-25T00:25:08.958Z,1000.15
2017-05-25T00:26:08.987Z,1000.14
2017-05-25T00:27:09.015Z,1000.08
2017-05-25T00:28:09.043Z,1000.09
2017-05-25T00:29:09.074Z,1000.08
2017-05-25T00:30:09.102Z,1000.06
2017-05-25T00:31:09.131Z,1000.04
2017-05-25T00:32:09.161Z,1000.07
2017-05-25T00:33:09.189Z,1000.04
2017-05-25T00:34:09.212Z,1000
2017-05-25T00:35:09.246Z,999.99
2017-05-25T00:36:09.276Z,1000.02
2017-05-25T00:37:09.303Z,999.94
2017-05-25T00:38:09.333Z,999.94
2017-05-25T00:39:09.357Z,999.95
2017-05-25T00:40:09.390Z,999.96
2017-05-25T00:41:09.419Z,999.92
2017-05-25T00:42:09.448Z,999.95
2017-05-25T00:43:09.477Z,999.89
2017-05-25T00:44:09.506Z,999.91
2017-05-25T00:45:09.534Z,999.9
2017-05-25T00:46:09.559Z,999.93
2017-05-25T00:47:09.588Z,999.95
2017-05-25T00:48:09.616Z,999.95
2017-05-25T00:49:09.896Z,999.93
2017-05-25T00:50:09.674Z,999.96
2017-05-25T00:51:09.703Z,999.96
2017-05-25T00:52:09.735Z,999.97
2017-05-25T00:53:09.761Z,999.95
2017-05-25T00:54:10.042Z,999.94
2017-05-25T00:55:09.814Z,999.95
2017-05-25T00:56:09.848Z,999.95
2017-05-25T00:57:09.876Z,999.92
2017-05-25T00:58:09.905Z,999.92
2017-05-25T00:59:10.186Z,999.92
2017-05-25T01:00:09.963Z,999.88
2017-05-25T01:01:09.992Z,999.92
2017-05-25T01:02:10.021Z,999.91
2017-05-25T01:03:10.049Z,999.87
2017-05-25T01:04:10.079Z,999.85
2017-05-25T01:05:10.102Z,999.85
2017-05-25T01:06:10.131Z,999.89
2017-05-25T01:07:10.160Z,999.86
2017-05-25T01:08:10.189Z,999.91
2017-05-25T01:09:10.218Z,999.84
2017-05-25T01:10:10.246Z,999.88
2017-05-25T01:11:10.272Z,999.89
2017-05-25T01:12:10.304Z,999.87
2017-05-25T01:13:10.338Z,999.91
2017-05-25T01:14:10.361Z,999.89
2017-05-25T01:15:10.390Z,999.92
2017-05-25T01:16:10.417Z,999.87
2017-05-25T01:17:10.442Z,999.89
2017-05-25T01:18:10.478Z,999.87
2017-05-25T01:19:10.501Z,999.87
2017-05-25T01:20:10.532Z,999.85
2017-05-25T01:21:10.560Z,999.86
2017-05-25T01:22:10.588Z,999.85
2017-05-25T01:23:10.616Z,999.85
2017-05-25T01:24:10.646Z,999.83
2017-05-25T01:25:10.674Z,999.83
2017-05-25T01:26:10.703Z,999.84
2017-05-25T01:27:10.733Z,999.85
2017-05-25T01:28:10.761Z,999.84
2017-05-25T01:29:10.790Z,999.85
2017-05-25T01:30:10.820Z,999.85
2017-05-25T01:31:10.847Z,999.83
2017-05-25T01:32:10.876Z,999.84
2017-05-25T01:33:10.905Z,999.84
2017-05-25T01:34:10.929Z,999.86
2017-05-25T01:35:10.958Z,999.83
2017-05-25T01:36:10.986Z,999.78
2017-05-25T01:37:11.014Z,999.79
2017-05-25T01:38:11.044Z,999.77
2017-05-25T01:39:11.073Z,999.76
2017-05-25T01:40:11.102Z,999.78
2017-05-25T01:41:11.128Z,999.78
2017-05-25T01:42:11.159Z,999.81
2017-05-25T01:43:11.246Z,999.77
2017-05-25T01:44:11.217Z,999.79
2017-05-25T01:45:11.246Z,999.77
2017-05-25T01:46:11.271Z,999.8
2017-05-25T01:47:11.303Z,999.8
2017-05-25T01:48:11.334Z,999.77
2017-05-25T01:49:11.358Z,999.78
2017-05-25T01:50:11.386Z,999.81
2017-05-25T01:51:11.415Z,999.8
2017-05-25T01:52:11.443Z,999.79
2017-05-25T01:53:11.473Z,999.81
2017-05-25T01:54:11.502Z,999.79
2017-05-25T01:55:11.530Z,999.81
2017-05-25T01:56:11.558Z,999.79
2017-05-25T01:57:11.589Z,999.77
2017-05-25T01:58:11.616Z,999.75
2017-05-25T01:59:11.645Z,999.75
2017-05-25T02:00:11.671Z,999.74
2017-05-25T02:01:11.700Z,999.75
2017-05-25T02:02:11.728Z,999.72
2017-05-25T02:03:11.757Z,999.75
2017-05-25T02:04:11.786Z,999.72
2017-05-25T02:05:11.815Z,999.72
2017-05-25T02:06:11.844Z,999.72
2017-05-25T02:07:11.872Z,999.71
2017-05-25T02:08:11.901Z,999.71
2017-05-25T02:09:11.930Z,999.72
2017-05-25T02:10:11.960Z,999.65
2017-05-25T02:11:11.986Z,999.67
2017-05-25T02:12:12.015Z,999.7
2017-05-25T02:13:12.045Z,999.7
2017-05-25T02:14:12.069Z,999.7
2017-05-25T02:15:12.097Z,999.74
2017-05-25T02:16:12.127Z,999.71
2017-05-25T02:17:12.156Z,999.7
2017-05-25T02:18:12.181Z,999.69
2017-05-25T02:19:12.214Z,999.7
2017-05-25T02:20:12.245Z,999.68
2017-05-25T02:21:12.271Z,999.69
2017-05-25T02:22:12.301Z,999.69
2017-05-25T02:23:12.328Z,999.71
2017-05-25T02:24:12.358Z,999.71
2017-05-25T02:25:12.386Z,999.69
2017-05-25T02:26:12.411Z,999.7
2017-05-25T02:27:12.440Z,999.68
2017-05-25T02:28:12.468Z,999.66
2017-05-25T02:29:12.497Z,999.72
2017-05-25T02:30:12.527Z,999.75
2017-05-25T02:31:12.555Z,999.8
2017-05-25T02:32:12.582Z,999.79
2017-05-25T02:33:12.613Z,999.79
2017-05-25T02:34:12.638Z,999.76
2017-05-25T02:35:12.670Z,999.79
2017-05-25T02:36:12.696Z,999.75
2017-05-25T02:37:12.725Z,999.76
2017-05-25T02:38:12.752Z,999.75
2017-05-25T02:39:12.781Z,999.74
2017-05-25T02:40:12.810Z,999.69
2017-05-25T02:41:12.840Z,999.75
2017-05-25T02:42:12.868Z,999.71
2017-05-25T02:43:12.900Z,999.68
2017-05-25T02:44:12.926Z,999.67
2017-05-25T02:45:12.958Z,999.69
2017-05-25T02:46:12.983Z,999.74
2017-05-25T02:47:13.009Z,999.72
2017-05-25T02:48:13.038Z,999.71
2017-05-25T02:49:13.067Z,999.71
2017-05-25T02:50:13.096Z,999.75
2017-05-25T02:51:13.123Z,999.77
2017-05-25T02:52:13.153Z,999.76
2017-05-25T02:53:13.182Z,999.71
2017-05-25T02:54:13.210Z,999.78
2017-05-25T02:55:13.492Z,999.84
2017-05-25T02:56:13.273Z,999.77
2017-05-25T02:57:13.297Z,999.79
2017-05-25T02:58:13.321Z,999.81
2017-05-25T02:59:13.351Z,999.8
2017-05-25T03:00:13.631Z,999.8
2017-05-25T03:01:13.408Z,999.8
2017-05-25T03:02:13.454Z,999.83
2017-05-25T03:03:13.461Z,999.78
2017-05-25T03:04:13.494Z,999.81
2017-05-25T03:05:13.775Z,999.82
2017-05-25T03:06:13.550Z,999.83
2017-05-25T03:07:13.580Z,999.83
2017-05-25T03:08:13.606Z,999.83
2017-05-25T03:09:13.635Z,999.83
2017-05-25T03:10:13.911Z,999.83
2017-05-25T03:11:13.692Z,999.82
2017-05-25T03:12:13.721Z,999.81
2017-05-25T03:13:13.752Z,999.81
2017-05-25T03:14:13.779Z,999.86
2017-05-25T03:15:14.058Z,999.85
2017-05-25T03:16:13.836Z,999.86
2017-05-25T03:17:13.860Z,999.9
2017-05-25T03:18:13.890Z,999.86
2017-05-25T03:19:13.918Z,999.88
2017-05-25T03:20:14.198Z,999.89
2017-05-25T03:21:13.976Z,999.84
2017-05-25T03:22:14.004Z,999.93
2017-05-25T03:23:14.033Z,999.88
2017-05-25T03:24:14.062Z,999.9
2017-05-25T03:25:14.091Z,999.9
2017-05-25T03:26:14.120Z,999.96
2017-05-25T03:27:14.143Z,999.89
2017-05-25T03:28:14.172Z,999.89
2017-05-25T03:29:14.202Z,999.87
2017-05-25T03:30:14.230Z,999.91
2017-05-25T03:31:14.264Z,999.9
2017-05-25T03:32:14.285Z,999.9
2017-05-25T03:33:14.316Z,999.96
2017-05-25T03:34:14.342Z,999.92
2017-05-25T03:35:14.375Z,999.92
2017-05-25T03:36:14.399Z,999.93
2017-05-25T03:37:14.429Z,999.92
2017-05-25T03:38:14.458Z,999.96
2017-05-25T03:39:14.485Z,999.96
2017-05-25T03:40:14.514Z,999.95
2017-05-25T03:41:14.544Z,999.95
2017-05-25T03:42:14.572Z,999.96
2017-05-25T03:43:14.599Z,999.93
2017-05-25T03:44:14.629Z,999.93
2017-05-25T03:45:14.659Z,999.92
2017-05-25T03:46:14.687Z,999.94
2017-05-25T03:47:14.714Z,999.96
2017-05-25T03:48:14.742Z,999.99
2017-05-25T03:49:14.771Z,999.96
2017-05-25T03:50:14.800Z,999.94
2017-05-25T03:51:14.824Z,999.94
2017-05-25T03:52:14.857Z,999.96
2017-05-25T03:53:14.886Z,999.92
2017-05-25T03:54:14.914Z,999.92
2017-05-25T03:55:14.944Z,999.94
2017-05-25T03:56:14.968Z,999.91
2017-05-25T03:57:14.997Z,999.93
2017-05-25T03:58:15.026Z,999.93
2017-05-25T03:59:15.054Z,999.93
2017-05-25T04:00:15.082Z,999.86
2017-05-25T04:01:15.108Z,999.9
2017-05-25T04:02:15.141Z,999.9
2017-05-25T04:03:15.169Z,999.91
2017-05-25T04:04:15.193Z,999.9
2017-05-25T04:05:15.224Z,999.9
2017-05-25T04:06:15.252Z,999.9
2017-05-25T04:07:15.281Z,999.92
2017-05-25T04:08:15.309Z,999.92
2017-05-25T04:09:15.338Z,999.94
2017-05-25T04:10:15.363Z,999.96
2017-05-25T04:11:15.391Z,999.96
2017-05-25T04:12:15.420Z,999.89
2017-05-25T04:13:15.449Z,999.95
2017-05-25T04:14:15.478Z,999.91
2017-05-25T04:15:15.506Z,999.96
2017-05-25T04:16:15.535Z,999.91
2017-05-25T04:17:15.564Z,999.87
2017-05-25T04:18:15.589Z,999.93
2017-05-25T04:19:15.618Z,999.93
2017-05-25T04:20:15.646Z,999.89
2017-05-25T04:21:15.676Z,999.94
2017-05-25T04:22:15.705Z,999.91
2017-05-25T04:23:15.733Z,999.92
2017-05-25T04:24:15.758Z,999.94
2017-05-25T04:25:15.791Z,999.93
2017-05-25T04:26:15.815Z,999.94
2017-05-25T04:27:15.843Z,999.95
2017-05-25T04:28:15.872Z,999.98
2017-05-25T04:29:15.902Z,999.96
2017-05-25T04:30:15.932Z,999.98
2017-05-25T04:31:15.959Z,999.96
2017-05-25T04:32:15.988Z,1000
2017-05-25T04:33:16.017Z,1000
2017-05-25T04:34:16.042Z,999.97
2017-05-25T04:35:16.067Z,1000.02
2017-05-25T04:36:16.100Z,1000.02
2017-05-25T04:37:16.128Z,1000.01
2017-05-25T04:38:16.157Z,1000
2017-05-25T04:39:16.187Z,1000.05
2017-05-25T04:40:16.215Z,1000.06
2017-05-25T04:41:16.244Z,1000.02
2017-05-25T04:42:16.273Z,1000.04
2017-05-25T04:43:16.296Z,1000.04
2017-05-25T04:44:16.325Z,1000.05
2017-05-25T04:45:16.355Z,1000.06
2017-05-25T04:46:16.383Z,1000.07
2017-05-25T04:47:16.413Z,1000.06
2017-05-25T04:48:16.441Z,1000.1
2017-05-25T04:49:16.469Z,1000.06
2017-05-25T04:50:16.495Z,1000.06
2017-05-25T04:51:16.775Z,1000.02
2017-05-25T04:52:16.550Z,1000.05
2017-05-25T04:53:16.580Z,1000.07
2017-05-25T04:54:16.609Z,1000.05
2017-05-25T04:55:16.639Z,1000.03
2017-05-25T04:56:16.918Z,1000.07
2017-05-25T04:57:16.691Z,1000.05
2017-05-25T04:58:16.721Z,1000.05
2017-05-25T04:59:16.753Z,1000.06
2017-05-25T05:00:16.779Z,1000.1
2017-05-25T05:01:17.056Z,1000.07
2017-05-25T05:02:16.835Z,1000.08
2017-05-25T05:03:16.866Z,1000.08
2017-05-25T05:04:16.890Z,1000.09
2017-05-25T05:05:16.918Z,1000.08
2017-05-25T05:06:17.147Z,1000.09
2017-05-25T05:07:16.977Z,1000.07
2017-05-25T05:08:17.005Z,1000.07
2017-05-25T05:09:17.030Z,1000.1
2017-05-25T05:10:17.066Z,1000.08
2017-05-25T05:11:17.290Z,1000.08
2017-05-25T05:12:17.115Z,1000.09
2017-05-25T05:13:17.145Z,1000.1
2017-05-25T05:14:17.174Z,1000.11
2017-05-25T05:15:17.203Z,1000.14
2017-05-25T05:16:17.484Z,1000.11
2017-05-25T05:17:17.261Z,1000.12
2017-05-25T05:18:17.289Z,1000.14
2017-05-25T05:19:17.318Z,1000.13
2017-05-25T05:20:17.343Z,1000.09
2017-05-25T05:21:17.624Z,1000.08
2017-05-25T05:22:17.401Z,1000.11
2017-05-25T05:23:17.430Z,1000.1
2017-05-25T05:24:17.458Z,1000.1
2017-05-25T05:25:17.486Z,1000.09
2017-05-25T05:26:17.715Z,1000.09
2017-05-25T05:27:17.543Z,1000.11
2017-05-25T05:28:17.569Z,1000.1
2017-05-25T05:29:17.598Z,1000.08
2017-05-25T05:30:17.627Z,1000.09
2017-05-25T05:31:17.903Z,1000.1
2017-05-25T05:32:17.685Z,1000.08
2017-05-25T05:33:17.714Z,1000.09
2017-05-25T05:34:17.742Z,1000.12
2017-05-25T05:35:17.772Z,1000.14
2017-05-25T05:36:17.992Z,1000.13
2017-05-25T05:37:17.825Z,1000.14
2017-05-25T05:38:17.854Z,1000.12
2017-05-25T05:39:17.881Z,1000.13
2017-05-25T05:40:17.911Z,1000.11
2017-05-25T05:41:18.140Z,1000.08
2017-05-25T05:42:17.968Z,1000.08
2017-05-25T05:43:17.997Z,1000.08
2017-05-25T05:44:18.022Z,1000.08
2017-05-25T05:45:18.050Z,1000.07
2017-05-25T05:46:18.279Z,1000.09
2017-05-25T05:47:18.110Z,1000.11
2017-05-25T05:48:18.137Z,1000.15
2017-05-25T05:49:18.167Z,1000.12
2017-05-25T05:50:18.195Z,1000.1
2017-05-25T05:51:18.223Z,1000.13
2017-05-25T05:52:18.253Z,1000.11
2017-05-25T05:53:18.274Z,1000.11
2017-05-25T05:54:18.307Z,1000.12
2017-05-25T05:55:18.336Z,1000.09
2017-05-25T05:56:18.364Z,1000.13
2017-05-25T05:57:18.392Z,1000.1
2017-05-25T05:58:18.417Z,1000.14
2017-05-25T05:59:18.457Z,1000.1
2017-05-25T06:00:18.478Z,1000.09
2017-05-25T06:01:18.503Z,1000.09
2017-05-25T06:02:18.532Z,1000.07
2017-05-25T06:03:18.556Z,1000.04
2017-05-25T06:04:18.592Z,1000.11
2017-05-25T06:05:18.619Z,1000.13
2017-05-25T06:06:18.648Z,1000.12
2017-05-25T06:07:18.677Z,1000.13
2017-05-25T06:08:18.705Z,1000.14
2017-05-25T06:09:18.736Z,1000.14
2017-05-25T06:10:18.762Z,1000.16
2017-05-25T06:11:18.790Z,1000.13
2017-05-25T06:12:18.817Z,1000.18
2017-05-25T06:13:18.846Z,1000.12
2017-05-25T06:14:18.876Z,1000.13
2017-05-25T06:15:18.902Z,1000.14
2017-05-25T06:16:18.984Z,1000.15
2017-05-25T06:17:18.961Z,1000.18
2017-05-25T06:18:18.994Z,1000.14
2017-05-25T06:19:19.014Z,1000.15
2017-05-25T06:20:19.038Z,1000.14
2017-05-25T06:21:19.071Z,1000.13
2017-05-25T06:22:19.096Z,1000.14
2017-05-25T06:23:19.130Z,1000.15
2017-05-25T06:24:19.158Z,1000.14
2017-05-25T06:25:19.187Z,1000.17
2017-05-25T06:26:19.217Z,1000.09
2017-05-25T06:27:19.257Z,1000.14
2017-05-25T06:28:19.273Z,1000.1
2017-05-25T06:29:19.304Z,1000.14
2017-05-25T06:30:19.327Z,1000.12
2017-05-25T06:31:19.355Z,1000.12
2017-05-25T06:32:19.385Z,1000.13
2017-05-25T06:33:19.414Z,1000.08
2017-05-25T06:34:19.442Z,1000.1
2017-05-25T06:35:19.470Z,1000.16
2017-05-25T06:36:19.500Z,1000.13
2017-05-25T06:37:19.541Z,1000.12
2017-05-25T06:38:19.557Z,1000.13
2017-05-25T06:39:19.586Z,1000.13
2017-05-25T06:40:19.615Z,1000.16
2017-05-25T06:41:19.643Z,1000.14
2017-05-25T06:42:19.670Z,1000.12
2017-05-25T06:43:19.698Z,1000.11
2017-05-25T06:44:19.728Z,1000.08
2017-05-25T06:45:19.754Z,1000.14
2017-05-25T06:46:19.785Z,1000.08
2017-05-25T06:47:19.814Z,1000.13
2017-05-25T06:48:19.840Z,1000.1
2017-05-25T06:49:19.871Z,1000.16
2017-05-25T06:50:19.895Z,1000.14
2017-05-25T06:51:19.927Z,1000.17
2017-05-25T06:52:20.156Z,1000.18
2017-05-25T06:53:19.985Z,1000.19
2017-05-25T06:54:20.015Z,1000.2
2017-05-25T06:55:20.043Z,1000.19
2017-05-25T06:56:20.071Z,1000.23
2017-05-25T06:57:20.346Z,1000.22
2017-05-25T06:58:20.124Z,1000.25
2017-05-25T06:59:20.151Z,1000.21
2017-05-25T07:00:20.183Z,1000.27
2017-05-25T07:01:20.211Z,1000.23
2017-05-25T07:02:20.240Z,1000.26
2017-05-25T07:03:20.268Z,1000.25
2017-05-25T07:04:20.297Z,1000.23
2017-05-25T07:05:20.322Z,1000.23
2017-05-25T07:06:20.355Z,1000.28
2017-05-25T07:07:20.385Z,1000.24
2017-05-25T07:08:20.408Z,1000.23
2017-05-25T07:09:20.442Z,1000.25
2017-05-25T07:10:20.471Z,1000.22
2017-05-25T07:11:20.499Z,1000.21
2017-05-25T07:12:20.528Z,1000.24
2017-05-25T07:13:20.556Z,1000.24
2017-05-25T07:14:20.587Z,1000.24
2017-05-25T07:15:20.614Z,1000.23
2017-05-25T07:16:20.642Z,1000.24
2017-05-25T07:17:20.668Z,1000.24
2017-05-25T07:18:20.695Z,1000.24
2017-05-25T07:19:20.725Z,1000.23
2017-05-25T07:20:20.754Z,1000.25
2017-05-25T07:21:20.784Z,1000.28
2017-05-25T07:22:20.812Z,1000.26
2017-05-25T07:23:20.842Z,1000.25
2017-05-25T07:24:20.870Z,1000.22
2017-05-25T07:25:20.900Z,1000.22
2017-05-25T07:26:20.929Z,1000.26
2017-05-25T07:27:20.958Z,1000.23
2017-05-25T07:28:20.988Z,1000.23
2017-05-25T07:29:21.016Z,1000.27
2017-05-25T07:30:21.044Z,1000.28
2017-05-25T07:31:21.073Z,1000.28
2017-05-25T07:32:21.101Z,1000.22
2017-05-25T07:33:21.124Z,1000.24
2017-05-25T07:34:21.161Z,1000.22
2017-05-25T07:35:21.186Z,1000.25
2017-05-25T07:36:21.216Z,1000.3
2017-05-25T07:37:21.246Z,1000.27
2017-05-25T07:38:21.273Z,1000.29
2017-05-25T07:39:21.299Z,1000.31
2017-05-25T07:40:21.328Z,1000.34
2017-05-25T07:41:21.356Z,1000.37
2017-05-25T07:42:21.385Z,1000.35
2017-05-25T07:43:21.413Z,1000.36
2017-05-25T07:44:21.438Z,1000.32
2017-05-25T07:45:21.466Z,1000.29
2017-05-25T07:46:21.500Z,1000.36
2017-05-25T07:47:21.529Z,1000.29
2017-05-25T07:48:21.553Z,1000.33
2017-05-25T07:49:21.586Z,1000.34
2017-05-25T07:50:21.615Z,1000.32
2017-05-25T07:51:21.643Z,1000.31
2017-05-25T07:52:21.672Z,1000.32
2017-05-25T07:53:21.701Z,1000.29
2017-05-25T07:54:21.730Z,1000.36
2017-05-25T07:55:21.758Z,1000.28
2017-05-25T07:56:21.788Z,1000.31
2017-05-25T07:57:21.816Z,1000.3
2017-05-25T07:58:21.842Z,1000.36
2017-05-25T07:59:21.873Z,1000.29
2017-05-25T08:00:21.899Z,1000.3
2017-05-25T08:01:21.931Z,1000.29
2017-05-25T08:02:21.961Z,1000.32
2017-05-25T08:03:21.990Z,1000.31
2017-05-25T08:04:22.019Z,1000.31
2017-05-25T08:05:22.047Z,1000.31
2017-05-25T08:06:22.076Z,1000.35
2017-05-25T08:07:22.100Z,1000.31
2017-05-25T08:08:22.134Z,1000.32
2017-05-25T08:09:22.162Z,1000.34
2017-05-25T08:10:22.191Z,1000.32
2017-05-25T08:11:22.263Z,1000.33
2017-05-25T08:12:22.249Z,1000.36
2017-05-25T08:13:22.279Z,1000.36
2017-05-25T08:14:22.303Z,1000.35
2017-05-25T08:15:22.336Z,1000.38
2017-05-25T08:16:22.364Z,1000.33
2017-05-25T08:17:22.394Z,1000.35
2017-05-25T08:18:22.422Z,1000.36
2017-05-25T08:19:22.449Z,1000.38
2017-05-25T08:20:22.476Z,1000.36
2017-05-25T08:21:22.508Z,1000.32
2017-05-25T08:22:22.538Z,1000.34
2017-05-25T08:23:22.565Z,1000.36
2017-05-25T08:24:22.595Z,1000.3
2017-05-25T08:25:22.620Z,1000.33
2017-05-25T08:26:22.648Z,1000.33
2017-05-25T08:27:22.679Z,1000.33
2017-05-25T08:28:22.709Z,1000.32
2017-05-25T08:29:22.738Z,1000.32
2017-05-25T08:30:22.766Z,1000.28
2017-05-25T08:31:22.793Z,1000.29
2017-05-25T08:32:22.824Z,1000.29
2017-05-25T08:33:22.854Z,1000.3
2017-05-25T08:34:22.881Z,1000.3
2017-05-25T08:35:22.912Z,1000.29
2017-05-25T08:36:22.941Z,1000.29
2017-05-25T08:37:22.969Z,1000.29
2017-05-25T08:38:22.999Z,1000.3
2017-05-25T08:39:23.029Z,1000.19
2017-05-25T08:40:23.056Z,1000.28
2017-05-25T08:41:23.085Z,1000.3
2017-05-25T08:42:23.108Z,1000.27
2017-05-25T08:43:23.142Z,1000.24
2017-05-25T08:44:23.175Z,1000.27
2017-05-25T08:45:23.200Z,1000.21
2017-05-25T08:46:23.233Z,1000.26
2017-05-25T08:47:23.262Z,1000.19
2017-05-25T08:48:23.286Z,1000.24
2017-05-25T08:49:23.320Z,1000.24
2017-05-25T08:50:23.349Z,1000.25
2017-05-25T08:51:23.377Z,1000.28
2017-05-25T08:52:23.407Z,1000.27
2017-05-25T08:53:23.632Z,1000.24
2017-05-25T08:54:23.463Z,1000.27
2017-05-25T08:55:23.492Z,1000.26
2017-05-25T08:56:23.521Z,1000.27
2017-05-25T08:57:23.548Z,1000.27
2017-05-25T08:58:23.830Z,1000.28
2017-05-25T08:59:23.603Z,1000.25
2017-05-25T09:00:23.635Z,1000.28
2017-05-25T09:01:23.664Z,1000.32
2017-05-25T09:02:23.697Z,1000.28
2017-05-25T09:03:23.977Z,1000.34
2017-05-25T09:04:23.754Z,1000.28
2017-05-25T09:05:23.783Z,1000.32
2017-05-25T09:06:23.807Z,1000.32
2017-05-25T09:07:23.841Z,1000.29
2017-05-25T09:08:24.122Z,1000.33
2017-05-25T09:09:23.899Z,1000.34
2017-05-25T09:10:23.927Z,1000.34
2017-05-25T09:11:23.955Z,1000.36
2017-05-25T09:12:23.983Z,1000.31
2017-05-25T09:13:24.269Z,1000.32
2017-05-25T09:14:24.043Z,1000.36
2017-05-25T09:15:24.075Z,1000.38
2017-05-25T09:16:24.105Z,1000.38
2017-05-25T09:17:24.133Z,1000.36
2017-05-25T09:18:24.420Z,1000.36
2017-05-25T09:19:24.190Z,1000.36
2017-05-25T09:20:24.221Z,1000.35
2017-05-25T09:21:24.248Z,1000.4
2017-05-25T09:22:24.276Z,1000.36
2017-05-25T09:23:24.557Z,1000.38
2017-05-25T09:24:24.339Z,1000.39
2017-05-25T09:25:24.366Z,1000.38
2017-05-25T09:26:24.395Z,1000.4
2017-05-25T09:27:24.425Z,1000.36
2017-05-25T09:28:24.706Z,1000.38
2017-05-25T09:29:24.482Z,1000.39
2017-05-25T09:30:24.511Z,1000.4
2017-05-25T09:31:24.539Z,1000.4
2017-05-25T09:32:24.573Z,1000.42
2017-05-25T09:33:24.852Z,1000.42
2017-05-25T09:34:24.631Z,1000.39
2017-05-25T09:35:24.659Z,1000.42
2017-05-25T09:36:24.689Z,1000.4
2017-05-25T09:37:24.717Z,1000.4
2017-05-25T09:38:24.996Z,1000.41
2017-05-25T09:39:24.779Z,1000.41
2017-05-25T09:40:24.804Z,1000.37
2017-05-25T09:41:24.832Z,1000.41
2017-05-25T09:42:24.865Z,1000.42
2017-05-25T09:43:25.145Z,1000.41
2017-05-25T09:44:24.923Z,1000.42
2017-05-25T09:45:24.953Z,1000.39
2017-05-25T09:46:24.980Z,1000.42
2017-05-25T09:47:25.011Z,1000.37
2017-05-25T09:48:25.285Z,1000.42
2017-05-25T09:49:25.069Z,1000.41
2017-05-25T09:50:25.095Z,1000.37
2017-05-25T09:51:25.129Z,1000.36
2017-05-25T09:52:25.156Z,1000.35
2017-05-25T09:53:25.438Z,1000.36
2017-05-25T09:54:25.211Z,1000.32
2017-05-25T09:55:25.243Z,1000.37
2017-05-25T09:56:25.272Z,1000.37
2017-05-25T09:57:25.304Z,1000.35
2017-05-25T09:58:25.589Z,1000.36
2017-05-25T09:59:25.363Z,1000.36
2017-05-25T10:00:25.391Z,1000.37
2017-05-25T10:01:25.420Z,1000.36
2017-05-25T10:02:25.448Z,1000.38
2017-05-25T10:03:25.729Z,1000.38
2017-05-25T10:04:25.502Z,1000.38
2017-05-25T10:05:25.545Z,1000.35
2017-05-25T10:06:25.570Z,1000.35
2017-05-25T10:07:25.597Z,1000.34
2017-05-25T10:08:25.879Z,1000.29
2017-05-25T10:09:25.654Z,1000.27
2017-05-25T10:10:25.683Z,1000.3
2017-05-25T10:11:25.712Z,1000.24
2017-05-25T10:12:25.747Z,1000.24
2017-05-25T10:13:26.025Z,1000.24
2017-05-25T10:14:25.803Z,1000.24
2017-05-25T10:15:25.830Z,1000.26
2017-05-25T10:16:25.859Z,1000.24
2017-05-25T10:17:25.888Z,1000.22
2017-05-25T10:18:26.169Z,1000.22
2017-05-25T10:19:25.945Z,1000.19
2017-05-25T10:20:25.975Z,1000.27
2017-05-25T10:21:26.008Z,1000.26
2017-05-25T10:22:26.037Z,1000.21
2017-05-25T10:23:26.318Z,1000.31
2017-05-25T10:24:26.094Z,1000.28
2017-05-25T10:25:26.124Z,1000.21
2017-05-25T10:26:26.152Z,1000.22
2017-05-25T10:27:26.181Z,1000.19
2017-05-25T10:28:26.211Z,1000.2
2017-05-25T10:29:26.447Z,1000.2
2017-05-25T10:30:26.270Z,1000.16
2017-05-25T10:31:26.300Z,1000.19
2017-05-25T10:32:26.329Z,1000.16
2017-05-25T10:33:26.362Z,1000.11
2017-05-25T10:34:26.386Z,1000.17
2017-05-25T10:35:26.414Z,1000.17
2017-05-25T10:36:26.449Z,1000.11
2017-05-25T10:37:26.477Z,1000.12
2017-05-25T10:38:26.501Z,1000.09
2017-05-25T10:39:26.535Z,1000.14
2017-05-25T10:40:26.562Z,1000.07
2017-05-25T10:41:26.587Z,1000.09
2017-05-25T10:42:26.620Z,1000.06
2017-05-25T10:43:26.650Z,1000.13
2017-05-25T10:44:26.679Z,1000.12
2017-05-25T10:45:26.712Z,1000.1
2017-05-25T10:46:26.739Z,1000.08
2017-05-25T10:47:26.769Z,1000.07
2017-05-25T10:48:26.798Z,1000.07
2017-05-25T10:49:26.820Z,1000.04
2017-05-25T10:50:26.855Z,1000.08
2017-05-25T10:51:26.889Z,1000.02
2017-05-25T10:52:26.917Z,1000.03
2017-05-25T10:53:26.947Z,1000.07
2017-05-25T10:54:26.972Z,1000.02
2017-05-25T10:55:27.004Z,1000
2017-05-25T10:56:27.033Z,999.98
2017-05-25T10:57:27.061Z,1000.01
2017-05-25T10:58:27.094Z,1000.01
2017-05-25T10:59:27.123Z,1000.01
2017-05-25T11:00:27.151Z,1000.01
2017-05-25T11:01:27.180Z,999.98
2017-05-25T11:02:27.209Z,999.96
2017-05-25T11:03:27.237Z,999.93
2017-05-25T11:04:27.266Z,999.93
2017-05-25T11:05:27.298Z,999.94
2017-05-25T11:06:27.327Z,999.95
2017-05-25T11:07:27.353Z,999.89
2017-05-25T11:08:27.385Z,999.89
2017-05-25T11:09:27.414Z,999.89
2017-05-25T11:10:27.446Z,999.86
2017-05-25T11:11:27.476Z,999.86
2017-05-25T11:12:27.505Z,999.91
2017-05-25T11:13:27.533Z,999.86
2017-05-25T11:14:27.563Z,999.83
2017-05-25T11:15:27.592Z,999.85
2017-05-25T11:16:27.620Z,999.83
2017-05-25T11:17:27.652Z,999.85
2017-05-25T11:18:27.682Z,999.84
2017-05-25T11:19:27.710Z,999.84
2017-05-25T11:20:27.739Z,999.86
2017-05-25T11:21:27.770Z,999.82
2017-05-25T11:22:27.797Z,999.76
2017-05-25T11:23:27.830Z,999.77
2017-05-25T11:24:27.859Z,999.72
2017-05-25T11:25:27.887Z,999.72
2017-05-25T11:26:27.916Z,999.74
2017-05-25T11:27:27.946Z,999.78
2017-05-25T11:28:27.979Z,999.78
2017-05-25T11:29:28.002Z,999.8
2017-05-25T11:30:28.035Z,999.81
2017-05-25T11:31:28.064Z,999.76
2017-05-25T11:32:28.088Z,999.79
2017-05-25T11:33:28.117Z,999.8
2017-05-25T11:34:28.154Z,999.79
2017-05-25T11:35:28.181Z,999.75
2017-05-25T11:36:28.203Z,999.76
2017-05-25T11:37:28.241Z,999.79
2017-05-25T11:38:28.273Z,999.73
2017-05-25T11:39:28.302Z,999.72
2017-05-25T11:40:28.334Z,999.75
2017-05-25T11:41:28.364Z,999.77
2017-05-25T11:42:28.392Z,999.82
2017-05-25T11:43:28.425Z,999.81
2017-05-25T11:44:28.454Z,999.81
2017-05-25T11:45:28.482Z,999.79
2017-05-25T11:46:28.516Z,999.85
2017-05-25T11:47:28.548Z,999.85
2017-05-25T11:48:28.579Z,999.85
2017-05-25T11:49:28.610Z,999.79
2017-05-25T11:50:28.639Z,999.77
2017-05-25T11:51:28.671Z,999.78
2017-05-25T11:52:28.702Z,999.8
2017-05-25T11:53:28.734Z,999.82
2017-05-25T11:54:28.766Z,999.86
2017-05-25T11:55:28.796Z,999.8
2017-05-25T11:56:28.827Z,999.79
2017-05-25T11:57:28.862Z,999.8
2017-05-25T11:58:28.893Z,999.79
2017-05-25T11:59:28.923Z,999.86
2017-05-25T12:00:28.952Z,999.89
2017-05-25T12:01:28.987Z,999.91
2017-05-25T12:02:29.015Z,999.84
2017-05-25T12:03:29.052Z,999.86
2017-05-25T12:04:29.082Z,999.76
2017-05-25T12:05:29.115Z,999.76
2017-05-25T12:06:29.147Z,999.71
2017-05-25T12:07:29.178Z,999.75
2017-05-25T12:08:29.213Z,999.72
2017-05-25T12:09:29.246Z,999.8
2017-05-25T12:10:29.280Z,999.74
2017-05-25T12:11:29.314Z,999.81
2017-05-25T12:12:29.345Z,999.77
2017-05-25T12:13:29.374Z,999.75
2017-05-25T12:14:29.411Z,999.75
2017-05-25T12:15:29.443Z,999.75
2017-05-25T12:16:29.477Z,999.73
2017-05-25T12:17:29.509Z,999.74